Time;durP1;ratioP1;P1;durP2;ratioP2;P2;SDS_P1;SDS_P2;PMS_P1;PMS_P2;Temp;Humidity;BMP_temperature;BMP_pressure;BME280_temperature;BME280_humidity;BME280_pressure;Samples;Min_cycle;Max_cycle;Signal;HPM_P1;HPM_P2
2023/09/23 00:01:20;;;;;;;12.98;8.63;;;;;;;12.06;99.48;100658.78;5095913;28;20023;-63
2023/09/23 00:03:46;;;;;;;9.63;8.63;;;;;;;12.03;99.62;100651.69;5095552;28;20032;-63
2023/09/23 00:06:12;;;;;;;9.40;8.23;;;;;;;12.09;100.00;100656.13;5095417;28;20032;-64
2023/09/23 00:08:38;;;;;;;9.80;8.80;;;;;;;12.09;99.90;100664.97;5095476;28;20032;-62
2023/09/23 00:11:04;;;;;;;9.52;8.52;;;;;;;12.14;99.81;100657.91;5094462;28;20051;-62
2023/09/23 00:13:30;;;;;;;10.27;8.60;;;;;;;12.22;100.00;100660.56;5095264;28;20047;-62
2023/09/23 00:15:56;;;;;;;10.93;8.85;;;;;;;12.16;99.90;100660.53;5095252;28;20013;-63
2023/09/23 00:18:21;;;;;;;11.13;9.60;;;;;;;12.14;100.00;100663.19;5095404;28;20060;-63
2023/09/23 00:20:47;;;;;;;11.30;8.90;;;;;;;12.08;100.00;100668.50;5095409;28;20052;-62
2023/09/23 00:23:13;;;;;;;10.75;9.50;;;;;;;12.01;100.00;100662.28;5095285;28;20517;-62
2023/09/23 00:25:39;;;;;;;14.27;10.93;;;;;;;11.91;100.00;100657.00;5095376;28;20081;-64
2023/09/23 00:28:10;;;;;;;12.90;10.82;;;;;;;11.83;100.00;100649.03;5095026;28;20107;-62
2023/09/23 00:30:36;;;;;;;14.65;13.15;;;;;;;11.71;100.00;100664.84;5095297;28;20359;-62
2023/09/23 00:33:02;;;;;;;15.43;13.82;;;;;;;11.66;100.00;100670.13;5094948;28;20418;-64
2023/09/23 00:35:28;;;;;;;17.33;15.02;;;;;;;11.68;100.00;100663.06;5095130;28;20060;-62
2023/09/23 00:37:53;;;;;;;16.33;14.27;;;;;;;11.68;100.00;100675.41;5094915;28;20074;-62
2023/09/23 00:40:24;;;;;;;18.13;13.82;;;;;;;11.72;100.00;100680.72;5094892;28;20036;-63
2023/09/23 00:42:50;;;;;;;15.77;13.75;;;;;;;11.77;100.00;100689.53;5095004;28;20115;-63
2023/09/23 00:45:17;;;;;;;16.02;13.60;;;;;;;11.84;100.00;100684.31;5094687;28;20056;-62
2023/09/23 00:47:43;;;;;;;16.17;13.05;;;;;;;11.85;100.00;100684.31;5094724;28;20473;-62
2023/09/23 00:50:19;;;;;;;15.18;13.57;;;;;;;11.86;100.00;100687.84;5094844;28;20024;-64
2023/09/23 00:52:51;;;;;;;14.52;12.95;;;;;;;11.77;100.00;100693.97;5095010;28;20032;-61
2023/09/23 00:55:20;;;;;;;18.58;12.68;;;;;;;11.77;100.00;100694.84;5094351;28;20024;-62
2023/09/23 00:57:47;;;;;;;16.13;11.80;;;;;;;11.77;100.00;100694.84;5094378;28;20523;-63
2023/09/23 01:00:13;;;;;;;16.42;11.23;;;;;;;11.74;100.00;100683.38;5094561;28;20078;-64
2023/09/23 01:02:39;;;;;;;15.25;12.68;;;;;;;11.79;100.00;100684.28;5094751;28;20028;-63
2023/09/23 01:05:05;;;;;;;13.88;11.13;;;;;;;11.84;100.00;100692.28;5094477;28;20027;-63
2023/09/23 01:07:32;;;;;;;13.15;10.93;;;;;;;11.88;100.00;100688.75;5094596;28;20043;-63
2023/09/23 01:09:59;;;;;;;11.68;10.05;;;;;;;11.82;100.00;100692.25;5093052;28;20028;-62
2023/09/23 01:12:25;;;;;;;12.73;9.55;;;;;;;11.83;100.00;100694.03;5092903;28;20103;-63
2023/09/23 01:14:51;;;;;;;11.73;9.52;;;;;;;11.82;100.00;100696.63;5094396;28;20115;-63
2023/09/23 01:17:17;;;;;;;13.82;8.63;;;;;;;11.83;100.00;100699.31;5094201;28;20024;-63
2023/09/23 01:19:42;;;;;;;11.32;8.68;;;;;;;11.85;100.00;100707.25;5093958;28;20059;-62
2023/09/23 01:22:08;;;;;;;11.40;8.15;;;;;;;11.83;100.00;100706.38;5094182;28;20040;-61
2023/09/23 01:24:34;;;;;;;11.45;7.85;;;;;;;11.88;100.00;100707.28;5094207;28;20027;-64
2023/09/23 01:26:59;;;;;;;11.95;6.82;;;;;;;11.88;100.00;100707.28;5093884;28;20028;-63
2023/09/23 01:29:26;;;;;;;11.20;6.80;;;;;;;11.85;100.00;100713.44;5093859;28;20023;-64
2023/09/23 01:32:25;;;;;;;10.07;6.93;;;;;;;11.83;100.00;100715.22;5094192;28;20036;-63
2023/09/23 01:34:50;;;;;;;13.55;6.88;;;;;;;11.84;100.00;100719.63;5087843;28;20044;-63
2023/09/23 01:37:16;;;;;;;12.10;7.07;;;;;;;11.88;100.00;100718.75;5093851;28;20024;-64
2023/09/23 01:39:41;;;;;;;12.65;6.50;;;;;;;11.88;100.00;100720.53;5093688;28;20070;-63
2023/09/23 01:42:07;;;;;;;12.18;6.28;;;;;;;11.85;100.00;100720.50;5093782;28;20080;-63
2023/09/23 01:44:33;;;;;;;11.85;6.25;;;;;;;11.82;100.00;100731.94;5093736;28;20024;-62
2023/09/23 01:46:59;;;;;;;12.57;6.93;;;;;;;11.84;100.00;100724.91;5093616;28;20032;-62
2023/09/23 01:49:24;;;;;;;13.25;6.53;;;;;;;11.84;100.00;100726.69;5093741;28;20107;-63
2023/09/23 01:51:50;;;;;;;13.07;6.30;;;;;;;11.88;100.00;100729.34;5093626;28;20028;-63
2023/09/23 01:54:15;;;;;;;11.70;6.40;;;;;;;11.90;100.00;100731.97;5093603;28;20055;-63
2023/09/23 01:56:41;;;;;;;10.18;6.03;;;;;;;11.92;100.00;100733.78;5093225;28;20060;-62
2023/09/23 01:59:09;;;;;;;12.68;6.10;;;;;;;11.96;100.00;100730.25;5093377;28;20036;-62
2023/09/23 02:01:35;;;;;;;10.23;6.10;;;;;;;11.94;100.00;100724.06;5093139;28;20032;-63
2023/09/23 02:04:01;;;;;;;11.50;6.05;;;;;;;11.94;100.00;100726.69;5093368;28;20386;-63
2023/09/23 02:06:28;;;;;;;8.63;5.95;;;;;;;11.88;100.00;100724.06;5093287;28;20032;-63
2023/09/23 02:08:54;;;;;;;10.65;5.95;;;;;;;11.93;100.00;100729.34;5093251;28;20028;-62
2023/09/23 02:11:20;;;;;;;11.20;5.72;;;;;;;11.88;100.00;100739.94;5093329;28;20039;-64
2023/09/23 02:13:47;;;;;;;8.48;5.72;;;;;;;11.81;100.00;100743.41;5093308;28;20035;-63
2023/09/23 02:16:12;;;;;;;10.85;5.32;;;;;;;11.84;100.00;100748.75;5093196;28;20060;-63
2023/09/23 02:18:38;;;;;;;9.65;5.53;;;;;;;11.86;100.00;100749.66;5093203;28;20067;-63
2023/09/23 02:21:04;;;;;;;17.02;5.53;;;;;;;11.87;100.00;100753.19;5092991;28;20513;-64
2023/09/23 02:23:29;;;;;;;8.80;4.97;;;;;;;11.87;100.00;100753.19;5093177;28;20032;-63
2023/09/23 02:25:54;;;;;;;9.15;5.32;;;;;;;11.79;100.00;100751.34;5092938;28;20031;-62
2023/09/23 02:28:20;;;;;;;11.65;5.05;;;;;;;11.76;100.00;100751.31;5093235;28;20028;-63
2023/09/23 02:30:45;;;;;;;9.43;5.22;;;;;;;11.74;100.00;100755.75;5093004;28;20031;-63
2023/09/23 02:33:11;;;;;;;11.02;5.45;;;;;;;11.71;100.00;100754.84;5093288;28;20027;-62
2023/09/23 02:35:36;;;;;;;12.73;5.47;;;;;;;11.68;100.00;100760.09;5092944;28;20036;-62
2023/09/23 02:38:02;;;;;;;8.15;5.10;;;;;;;11.69;100.00;100773.38;5092964;28;20088;-63
2023/09/23 02:40:27;;;;;;;11.13;5.00;;;;;;;11.66;100.00;100770.69;5093003;28;20097;-62
2023/09/23 02:42:53;;;;;;;9.00;4.95;;;;;;;11.64;100.00;100775.06;5092963;28;20029;-63
2023/09/23 02:45:20;;;;;;;12.02;5.30;;;;;;;11.63;100.00;100778.59;5093157;28;20036;-62
2023/09/23 02:47:46;;;;;;;8.75;4.50;;;;;;;11.60;100.00;100781.22;5092858;28;20512;-64
2023/09/23 02:50:13;;;;;;;9.75;4.63;;;;;;;11.58;100.00;100783.00;5093080;28;20055;-63
2023/09/23 02:52:39;;;;;;;8.85;4.78;;;;;;;11.54;100.00;100783.84;5092897;28;20531;-63
2023/09/23 02:55:12;;;;;;;9.13;4.68;;;;;;;11.55;100.00;100788.25;5093041;28;20024;-62
2023/09/23 02:57:38;;;;;;;;;;;;;;;11.62;100.00;100783.91;5093031;28;20044;-63
2023/09/23 03:00:16;;;;;;;10.02;4.55;;;;;;;11.52;100.00;100789.16;5092781;28;20380;-61
2023/09/23 03:02:45;;;;;;;10.40;4.75;;;;;;;11.43;100.00;100793.47;5092767;28;20035;-63
2023/09/23 03:05:15;;;;;;;10.00;4.32;;;;;;;11.41;100.00;100793.47;5092954;28;20029;-63
2023/09/23 03:07:41;;;;;;;11.77;4.32;;;;;;;11.42;100.00;100787.31;5093005;28;20028;-63
2023/09/23 03:10:12;;;;;;;9.57;4.53;;;;;;;11.40;100.00;100793.47;5092697;28;20054;-63
2023/09/23 03:12:42;;;;;;;11.18;4.38;;;;;;;11.34;100.00;100801.34;5092568;28;20482;-63
2023/09/23 03:15:14;;;;;;;10.20;4.30;;;;;;;11.30;100.00;100792.50;5095514;28;20412;-64
2023/09/23 03:17:42;;;;;;;6.22;3.88;;;;;;;11.30;100.00;100800.44;5096425;28;20024;-63
2023/09/23 03:20:10;;;;;;;11.57;4.47;;;;;;;11.25;100.00;100792.47;5095268;28;20040;-63
2023/09/23 03:22:36;;;;;;;9.73;4.10;;;;;;;11.22;100.00;100797.78;5095469;28;20393;-63
2023/09/23 03:25:03;;;;;;;7.25;3.97;;;;;;;11.20;100.00;100791.56;5096596;28;20466;-62
2023/09/23 03:27:28;;;;;;;8.60;4.30;;;;;;;11.22;100.00;100805.72;5094787;28;20036;-64
2023/09/23 03:29:55;;;;;;;7.53;4.30;;;;;;;11.20;100.00;100807.44;5096308;28;20073;-62
2023/09/23 03:32:20;;;;;;;9.85;4.30;;;;;;;11.21;100.00;100813.59;5096259;28;20039;-63
2023/09/23 03:34:50;;;;;;;6.32;3.83;;;;;;;11.24;100.00;100813.66;5096408;28;20024;-64
2023/09/23 03:37:15;;;;;;;7.28;3.85;;;;;;;11.27;100.00;100814.56;5096027;28;20482;-63
2023/09/23 03:39:41;;;;;;;7.30;3.65;;;;;;;11.26;100.00;100820.72;5096072;28;20073;-62
2023/09/23 03:42:06;;;;;;;11.85;3.95;;;;;;;11.29;100.00;100812.78;5096330;28;20081;-63
2023/09/23 03:44:35;;;;;;;8.38;3.80;;;;;;;11.27;100.00;100817.19;5094611;28;20374;-62
2023/09/23 03:47:01;;;;;;;7.90;3.88;;;;;;;11.26;100.00;100830.41;5095988;28;20554;-63
2023/09/23 03:49:26;;;;;;;10.20;3.72;;;;;;;11.26;100.00;100828.66;5094745;28;20054;-64
2023/09/23 03:51:52;;;;;;;5.40;3.42;;;;;;;11.24;100.00;100817.16;5095875;28;20393;-63
2023/09/23 03:54:17;;;;;;;8.57;3.90;;;;;;;11.23;100.00;100822.47;5096087;28;20046;-64
2023/09/23 03:56:43;;;;;;;10.45;4.15;;;;;;;11.24;100.00;100817.16;5094627;28;20031;-64
2023/09/23 03:59:08;;;;;;;7.03;3.72;;;;;;;11.23;100.00;100825.97;5095964;28;20429;-63
2023/09/23 04:01:36;;;;;;;8.15;4.00;;;;;;;11.25;100.00;100834.81;5095748;28;20063;-63
2023/09/23 04:04:02;;;;;;;7.28;3.85;;;;;;;11.28;100.00;100832.19;5095629;28;20478;-63
2023/09/23 04:06:28;;;;;;;14.50;4.50;;;;;;;11.22;100.00;100825.94;5095626;28;20032;-63
2023/09/23 04:08:55;;;;;;;7.85;3.58;;;;;;;11.18;100.00;100833.00;5095838;28;20435;-64
2023/09/23 04:11:20;;;;;;;8.38;3.63;;;;;;;11.15;100.00;100827.69;5095801;28;20032;-63
2023/09/23 04:13:46;;;;;;;8.27;3.90;;;;;;;11.13;100.00;100832.06;5094125;28;20476;-63
2023/09/23 04:16:11;;;;;;;10.07;3.80;;;;;;;11.14;100.00;100847.06;5094369;28;20059;-63
2023/09/23 04:18:37;;;;;;;8.30;3.80;;;;;;;11.15;100.00;100846.19;5095658;28;20115;-64
2023/09/23 04:21:03;;;;;;;8.57;3.70;;;;;;;11.15;100.00;100842.66;5095203;28;20054;-63
2023/09/23 04:23:29;;;;;;;10.43;3.85;;;;;;;11.18;100.00;100843.59;5095322;28;20508;-64
2023/09/23 04:25:55;;;;;;;8.40;3.80;;;;;;;11.21;100.00;100859.47;5094625;28;20095;-63
2023/09/23 04:28:20;;;;;;;5.50;3.58;;;;;;;11.21;100.00;100861.22;5095093;28;20485;-63
2023/09/23 04:30:46;;;;;;;11.70;3.80;;;;;;;11.22;100.00;100857.69;5095210;28;20032;-63
2023/09/23 04:33:14;;;;;;;9.88;3.90;;;;;;;11.22;100.00;100862.97;5095093;28;20127;-63
2023/09/23 04:35:40;;;;;;;7.30;3.72;;;;;;;11.25;100.00;100868.31;5094954;28;20052;-62
2023/09/23 04:38:05;;;;;;;6.40;3.65;;;;;;;11.22;100.00;100866.53;5095060;28;20026;-63
2023/09/23 04:40:31;;;;;;;9.00;3.72;;;;;;;11.23;100.00;100878.00;5094925;28;20486;-63
2023/09/23 04:42:56;;;;;;;8.23;3.80;;;;;;;11.23;100.00;100881.53;5095176;28;20064;-63
2023/09/23 04:45:22;;;;;;;9.48;3.95;;;;;;;11.23;100.00;100876.25;5094837;28;20106;-62
2023/09/23 04:47:50;;;;;;;6.57;3.40;;;;;;;11.26;100.00;100883.28;5094824;28;20036;-63
2023/09/23 04:50:17;;;;;;;8.75;3.60;;;;;;;11.26;100.00;100886.84;5094761;28;20020;-63
2023/09/23 04:52:43;;;;;;;7.95;3.40;;;;;;;11.25;100.00;100885.06;5094961;28;20036;-63
2023/09/23 04:55:09;;;;;;;8.35;3.97;;;;;;;11.19;100.00;100885.03;5094528;28;20020;-63
2023/09/23 04:57:36;;;;;;;7.78;3.50;;;;;;;11.18;100.00;100888.53;5094411;28;20465;-62
2023/09/23 05:00:03;;;;;;;8.38;4.10;;;;;;;11.16;100.00;100889.41;5094533;28;20028;-63
2023/09/23 05:02:29;;;;;;;10.60;4.30;;;;;;;11.12;100.00;100898.16;5094443;28;20036;-64
2023/09/23 05:04:55;;;;;;;7.72;3.60;;;;;;;11.09;100.00;100903.41;5094422;28;20043;-63
2023/09/23 05:07:21;;;;;;;9.90;4.50;;;;;;;11.03;100.00;100897.22;5094320;28;20035;-63
2023/09/23 05:09:47;;;;;;;10.25;3.90;;;;;;;11.06;100.00;100900.78;5093361;28;20366;-62
2023/09/23 05:12:14;;;;;;;9.00;4.00;;;;;;;11.03;100.00;100906.91;5094324;28;20031;-62
2023/09/23 05:14:40;;;;;;;11.60;4.20;;;;;;;11.02;100.00;100907.78;5094043;28;20049;-62
2023/09/23 05:17:05;;;;;;;11.38;4.15;;;;;;;11.01;100.00;100913.94;5094096;28;20111;-64
2023/09/23 05:19:34;;;;;;;8.15;4.10;;;;;;;11.01;100.00;100925.41;5094106;28;20069;-63
2023/09/23 05:22:00;;;;;;;12.23;4.05;;;;;;;10.99;100.00;100934.19;5094510;28;20032;-64
2023/09/23 05:24:27;;;;;;;8.27;3.80;;;;;;;10.94;100.00;100939.44;5093862;28;20030;-63
2023/09/23 05:26:55;;;;;;;7.18;3.83;;;;;;;10.92;100.00;100938.53;5093402;28;20097;-63
2023/09/23 05:29:21;;;;;;;7.45;4.22;;;;;;;10.88;100.00;100955.22;5093481;28;20054;-62
2023/09/23 05:31:47;;;;;;;8.02;4.07;;;;;;;10.89;100.00;100958.75;5093680;28;20035;-62
2023/09/23 05:34:12;;;;;;;9.23;4.15;;;;;;;10.91;100.00;100957.88;5093522;28;20032;-62
2023/09/23 05:36:38;;;;;;;9.82;4.05;;;;;;;10.89;100.00;100961.41;5092821;28;20486;-63
2023/09/23 05:39:05;;;;;;;8.30;4.00;;;;;;;10.88;100.00;100963.16;5093240;28;20482;-62
2023/09/23 05:41:30;;;;;;;7.10;3.95;;;;;;;10.84;100.00;100961.34;5086131;28;20024;-63
2023/09/23 05:43:56;;;;;;;8.32;4.20;;;;;;;10.86;100.00;100961.34;5071978;28;20543;-63
2023/09/23 05:46:21;;;;;;;14.05;4.30;;;;;;;10.86;100.00;100974.56;5072762;28;20021;-63
2023/09/23 05:48:49;;;;;;;8.82;4.30;;;;;;;10.86;100.00;100972.81;5073147;28;20027;-63
2023/09/23 05:51:15;;;;;;;7.00;4.05;;;;;;;10.85;100.00;100989.56;5072892;28;20113;-62
2023/09/23 05:53:41;;;;;;;9.07;4.03;;;;;;;10.82;100.00;100983.34;5073050;28;20024;-63
2023/09/23 05:56:07;;;;;;;10.65;4.07;;;;;;;10.86;100.00;100990.44;5072685;28;20028;-62
2023/09/23 05:58:32;;;;;;;7.43;3.90;;;;;;;10.90;100.00;100982.56;5072787;28;20025;-62
2023/09/23 06:00:57;;;;;;;8.20;4.03;;;;;;;10.90;100.00;100993.13;5072811;28;20071;-63
2023/09/23 06:03:23;;;;;;;9.85;4.10;;;;;;;10.94;100.00;100992.31;5072675;28;20470;-63
2023/09/23 06:05:49;;;;;;;11.18;4.03;;;;;;;11.02;100.00;100995.91;5073025;28;20044;-61
2023/09/23 06:08:14;;;;;;;7.68;4.07;;;;;;;11.08;100.00;101007.44;5072654;28;20359;-62
2023/09/23 06:10:40;;;;;;;5.93;3.53;;;;;;;11.17;100.00;101012.81;5072625;28;20497;-63
2023/09/23 06:13:06;;;;;;;10.95;4.07;;;;;;;11.24;100.00;101017.31;5072663;28;20024;-62
2023/09/23 06:15:32;;;;;;;8.57;4.28;;;;;;;11.37;100.00;101020.97;5071302;28;20024;-62
2023/09/23 06:17:57;;;;;;;10.13;4.03;;;;;;;11.48;100.00;101028.16;5072560;28;20402;-61
2023/09/23 06:20:22;;;;;;;6.18;4.68;;;;;;;11.53;100.00;101033.50;5072301;28;20097;-62
2023/09/23 06:22:48;;;;;;;10.90;4.00;;;;;;;11.51;100.00;101044.03;5072570;28;20036;-63
2023/09/23 06:25:13;;;;;;;7.75;3.90;;;;;;;11.51;100.00;101054.63;5072705;28;20433;-64
2023/09/23 06:27:39;;;;;;;8.90;4.35;;;;;;;11.54;100.00;101057.31;5072301;28;20043;-62
2023/09/23 06:30:05;;;;;;;8.15;4.07;;;;;;;11.61;100.00;101049.47;5072648;28;20046;-62
2023/09/23 06:32:32;;;;;;;11.25;4.25;;;;;;;11.69;100.00;101047.75;5072332;28;20020;-62
2023/09/23 06:34:57;;;;;;;7.43;4.07;;;;;;;11.82;100.00;101054.97;5071064;28;20111;-63
2023/09/23 06:37:22;;;;;;;8.27;3.97;;;;;;;11.94;100.00;101063.00;5072314;28;20494;-63
2023/09/23 06:39:48;;;;;;;7.25;3.80;;;;;;;12.10;100.00;101063.16;5072534;28;20028;-62
2023/09/23 06:42:13;;;;;;;7.78;3.88;;;;;;;12.25;100.00;101068.59;5072319;28;20025;-63
2023/09/23 06:44:39;;;;;;;9.60;3.88;;;;;;;12.36;100.00;101071.28;5072289;28;20439;-62
2023/09/23 06:47:04;;;;;;;11.30;3.50;;;;;;;12.43;100.00;101075.78;5072250;28;20036;-62
2023/09/23 06:49:30;;;;;;;7.47;3.85;;;;;;;12.43;100.00;101083.72;5076190;28;20386;-63
2023/09/23 06:51:55;;;;;;;9.85;4.00;;;;;;;12.52;100.00;101074.06;5076249;28;20120;-63
2023/09/23 06:54:21;;;;;;;12.13;4.30;;;;;;;12.63;100.00;101084.72;5076489;28;20029;-63
2023/09/23 06:56:46;;;;;;;8.48;4.25;;;;;;;12.61;100.00;101089.13;5075924;28;20021;-63
2023/09/23 06:59:12;;;;;;;8.23;3.80;;;;;;;12.64;100.00;101085.63;5076151;28;20032;-63
2023/09/23 07:01:37;;;;;;;12.02;4.15;;;;;;;12.66;100.00;101084.75;5076043;28;20033;-63
2023/09/23 07:04:04;;;;;;;10.43;4.18;;;;;;;12.81;100.00;101096.34;5074785;28;20052;-62
2023/09/23 07:06:29;;;;;;;9.32;4.18;;;;;;;12.94;100.00;101093.75;5076016;28;20032;-63
2023/09/23 07:08:55;;;;;;;8.30;4.72;;;;;;;13.10;100.00;101089.38;5075914;28;20383;-63
2023/09/23 07:11:20;;;;;;;9.27;3.70;;;;;;;13.19;100.00;101097.41;5075981;28;20079;-62
2023/09/23 07:13:46;;;;;;;9.40;3.70;;;;;;;13.28;100.00;101105.44;5074340;28;20032;-63
2023/09/23 07:16:14;;;;;;;7.38;3.90;;;;;;;13.44;100.00;101100.16;5075993;28;20031;-63
2023/09/23 07:18:39;;;;;;;8.10;3.72;;;;;;;13.57;100.00;101112.59;5075843;28;20115;-64
2023/09/23 07:21:05;;;;;;;9.10;3.85;;;;;;;13.71;100.00;101118.84;5075650;28;20473;-63
2023/09/23 07:23:30;;;;;;;9.65;4.05;;;;;;;13.83;100.00;101125.91;5075655;28;20450;-63
2023/09/23 07:25:55;;;;;;;9.30;4.00;;;;;;;13.93;100.00;101129.50;5074306;28;20073;-62
2023/09/23 07:28:21;;;;;;;7.68;3.80;;;;;;;13.94;99.62;101124.19;5075494;28;20414;-61
2023/09/23 07:30:46;;;;;;;8.10;3.80;;;;;;;14.09;99.96;101133.03;5075561;28;20020;-62
2023/09/23 07:33:12;;;;;;;10.77;3.97;;;;;;;14.19;98.11;101142.81;5075530;28;20029;-62
2023/09/23 07:35:37;;;;;;;9.05;4.00;;;;;;;14.23;97.97;101148.13;5075534;28;20108;-63
2023/09/23 07:38:02;;;;;;;7.40;3.85;;;;;;;14.29;97.41;101149.91;5075552;28;20025;-63
2023/09/23 07:40:31;;;;;;;9.57;3.83;;;;;;;14.40;96.96;101153.44;5075722;28;20082;-63
2023/09/23 07:42:57;;;;;;;8.95;3.83;;;;;;;14.53;96.23;101157.03;5075664;28;20107;-63
2023/09/23 07:45:23;;;;;;;8.68;3.85;;;;;;;14.71;96.62;101158.78;5075345;28;20561;-64
2023/09/23 07:47:48;;;;;;;8.45;3.60;;;;;;;14.93;96.15;101159.63;5075481;28;20148;-62
2023/09/23 07:50:14;;;;;;;7.95;3.65;;;;;;;15.13;95.11;101155.16;5075305;28;20436;-63
2023/09/23 07:52:40;;;;;;;9.45;3.58;;;;;;;15.15;92.80;101169.31;5075241;28;20021;-63
2023/09/23 07:55:05;;;;;;;8.02;3.60;;;;;;;15.29;93.82;101163.97;5075478;28;20434;-63
2023/09/23 07:57:32;;;;;;;12.85;3.85;;;;;;;15.51;93.41;101167.44;5075233;28;20355;-63
2023/09/23 07:59:58;;;;;;;13.88;3.78;;;;;;;15.61;90.72;101166.50;5074309;28;20029;-62
2023/09/23 08:02:23;;;;;;;6.80;3.63;;;;;;;15.72;89.72;101178.03;5075113;28;20386;-63
2023/09/23 08:04:48;;;;;;;8.05;3.65;;;;;;;15.88;90.55;101181.47;5075145;28;20025;-62
2023/09/23 08:07:14;;;;;;;12.98;3.80;;;;;;;16.10;90.13;101181.34;5074963;28;20461;-63
2023/09/23 08:09:40;;;;;;;9.55;3.35;;;;;;;16.05;88.16;101181.38;5073743;28;20016;-63
2023/09/23 08:12:05;;;;;;;9.07;3.15;;;;;;;16.18;88.79;101193.72;5074833;28;20489;-61
2023/09/23 08:14:30;;;;;;;7.95;3.72;;;;;;;16.15;88.84;101193.78;5074743;28;20085;-63
2023/09/23 08:16:56;;;;;;;7.75;3.35;;;;;;;16.19;87.03;101199.97;5074735;28;20052;-63
2023/09/23 08:19:21;;;;;;;11.10;3.67;;;;;;;16.11;88.41;101192.00;5074798;28;20029;-63
2023/09/23 08:21:47;;;;;;;8.65;3.55;;;;;;;16.05;87.13;101210.69;5074430;28;20110;-62
2023/09/23 08:24:12;;;;;;;7.03;3.30;;;;;;;16.14;87.64;101207.97;5074649;28;20040;-63
2023/09/23 08:26:38;;;;;;;10.45;3.78;;;;;;;16.13;87.07;101194.66;5074786;28;20386;-63
2023/09/23 08:29:05;;;;;;;8.18;3.67;;;;;;;16.19;86.63;101221.31;5074569;28;20036;-62
2023/09/23 08:31:30;;;;;;;8.98;3.45;;;;;;;16.07;86.35;101224.03;5074916;28;20037;-63
2023/09/23 08:33:56;;;;;;;6.38;3.50;;;;;;;16.16;87.40;101215.97;5074588;28;20032;-64
2023/09/23 08:36:21;;;;;;;9.50;3.38;;;;;;;16.33;86.85;101227.41;5074441;28;20071;-63
2023/09/23 08:38:46;;;;;;;11.52;3.70;;;;;;;16.46;85.55;101229.09;5074313;28;20094;-63
2023/09/23 08:41:16;;;;;;;11.13;3.67;;;;;;;16.57;85.78;101231.66;5074641;28;20094;-62
2023/09/23 08:43:42;;;;;;;6.63;3.15;;;;;;;16.59;84.82;101243.22;5074171;28;20028;-63
2023/09/23 08:46:11;;;;;;;6.25;3.00;;;;;;;16.70;84.25;101241.38;5074224;28;20024;-63
2023/09/23 08:48:38;;;;;;;8.68;3.55;;;;;;;16.72;84.49;101244.03;5074253;28;20021;-62
2023/09/23 08:51:06;;;;;;;7.43;3.35;;;;;;;16.73;82.98;101251.16;5074372;28;20025;-62
2023/09/23 08:53:38;;;;;;;9.18;3.60;;;;;;;16.83;83.97;101255.53;5074274;28;20029;-62
2023/09/23 08:56:05;;;;;;;7.88;3.45;;;;;;;17.11;84.19;101264.16;5073793;28;20501;-62
2023/09/23 08:58:31;;;;;;;8.10;3.35;;;;;;;17.27;83.60;101268.47;5074082;28;20028;-62
2023/09/23 09:00:57;;;;;;;9.48;3.30;;;;;;;17.37;81.52;101271.03;5073846;28;20170;-63
2023/09/23 09:03:22;;;;;;;12.30;3.33;;;;;;;17.20;81.31;101264.06;5073847;28;20032;-62
2023/09/23 09:05:48;;;;;;;10.68;3.50;;;;;;;17.17;nan;101273.91;5072296;28;20040;-62
2023/09/23 09:08:14;;;;;;;10.15;3.38;;;;;;;16.92;82.66;101270.59;5074035;28;20058;-64
2023/09/23 09:10:42;;;;;;;6.57;3.00;;;;;;;16.82;84.87;101268.88;5073541;28;20021;-63
2023/09/23 09:13:07;;;;;;;9.18;3.20;;;;;;;16.85;85.24;101268.84;5086750;28;20117;-62
2023/09/23 09:15:35;;;;;;;8.13;3.13;;;;;;;16.83;83.07;101281.31;5093792;28;20529;-63
2023/09/23 09:18:02;;;;;;;10.30;3.30;;;;;;;16.62;83.48;101277.03;5093910;28;20040;-63
2023/09/23 09:20:31;;;;;;;8.38;3.33;;;;;;;16.52;85.04;101279.72;5093692;28;20052;-63
2023/09/23 09:22:57;;;;;;;6.70;2.97;;;;;;;16.50;85.15;101283.31;5094043;28;20024;-63
2023/09/23 09:25:22;;;;;;;8.10;3.03;;;;;;;16.43;85.15;101286.91;5093919;28;20496;-62
2023/09/23 09:27:48;;;;;;;9.55;3.03;;;;;;;16.39;85.33;101291.38;5093316;28;20036;-63
2023/09/23 09:30:14;;;;;;;8.90;3.00;;;;;;;16.44;86.53;101302.00;5093735;28;20026;-62
2023/09/23 09:32:44;;;;;;;6.47;3.00;;;;;;;16.50;86.24;101296.66;5092230;28;20099;-60
2023/09/23 09:35:17;;;;;;;10.52;3.50;;;;;;;16.46;86.12;101298.47;5093434;28;20027;-61
2023/09/23 09:37:47;;;;;;;8.85;3.10;;;;;;;16.36;85.98;101303.84;5093674;28;20032;-62
2023/09/23 09:40:17;;;;;;;8.48;3.00;;;;;;;16.35;86.26;101308.28;5093312;28;20109;-61
2023/09/23 09:42:57;;;;;;;9.77;2.90;;;;;;;16.26;86.00;101316.34;5093376;28;20039;-62
2023/09/23 09:45:23;;;;;;;9.10;2.80;;;;;;;16.22;86.97;101318.13;5092960;28;20119;-62
2023/09/23 09:47:55;;;;;;;7.10;2.90;;;;;;;16.23;87.47;101317.25;5093420;28;20024;-62
2023/09/23 09:50:23;;;;;;;6.13;2.70;;;;;;;16.19;86.88;101325.28;5091928;28;20028;-61
2023/09/23 09:52:48;;;;;;;7.72;3.10;;;;;;;16.13;87.08;101333.28;5093155;28;20106;-62
2023/09/23 09:55:18;;;;;;;6.80;2.67;;;;;;;16.12;87.05;101320.88;5092969;28;20525;-62
2023/09/23 09:57:45;;;;;;;6.40;2.70;;;;;;;16.21;87.81;101328.81;5093208;28;20032;-62
2023/09/23 10:00:20;;;;;;;7.85;3.00;;;;;;;16.16;87.31;101328.84;5091489;28;20431;-62
2023/09/23 10:02:48;;;;;;;5.20;2.65;;;;;;;16.25;86.91;101323.47;5093447;28;20036;-62
2023/09/23 10:05:20;;;;;;;10.85;2.95;;;;;;;16.30;87.03;101330.56;5093019;28;20028;-62
2023/09/23 10:07:55;;;;;;;7.55;2.63;;;;;;;16.34;85.63;101329.66;5092880;28;20016;-62
2023/09/23 10:10:35;;;;;;;7.65;2.70;;;;;;;16.30;86.00;101327.88;5092682;28;20111;-62
2023/09/23 10:13:29;;;;;;;7.72;2.92;;;;;;;16.39;86.86;101325.16;5091830;28;20081;-62
2023/09/23 10:16:04;;;;;;;14.15;2.85;;;;;;;16.45;85.58;101339.38;5090328;28;20482;-62
2023/09/23 10:18:34;;;;;;;10.70;3.15;;;;;;;16.44;84.78;101337.56;5092939;28;20062;-62
2023/09/23 10:21:02;;;;;;;18.15;6.57;;;;;;;16.50;85.04;101340.22;5092468;28;20055;-62
2023/09/23 10:23:34;;;;;;;15.15;5.97;;;;;;;16.59;85.72;101341.06;5091922;28;20494;-61
2023/09/23 10:26:19;;;;;;;8.50;3.20;;;;;;;16.67;85.80;101340.13;5092461;28;20046;-62
2023/09/23 10:29:05;;;;;;;11.50;3.17;;;;;;;16.85;85.05;101348.94;5092579;28;20028;-62
2023/09/23 10:31:32;;;;;;;9.25;3.22;;;;;;;16.94;84.79;101346.19;5092807;28;20032;-62
2023/09/23 10:34:03;;;;;;;10.48;3.15;;;;;;;17.00;84.04;101357.72;5092530;28;20028;-62
2023/09/23 10:36:28;;;;;;;7.43;3.00;;;;;;;16.97;82.59;101354.19;5091417;28;20028;-63
2023/09/23 10:38:55;;;;;;;7.30;2.92;;;;;;;17.00;83.51;101351.47;5091241;28;20028;-63
2023/09/23 10:41:22;;;;;;;7.05;2.90;;;;;;;17.00;83.69;101356.81;5092601;28;20028;-62
2023/09/23 10:43:56;;;;;;;9.95;3.20;;;;;;;17.07;82.84;101360.34;5092473;28;20028;-63
2023/09/23 10:46:21;;;;;;;7.68;2.78;;;;;;;17.06;82.44;101362.13;5092554;28;20093;-60
2023/09/23 10:48:46;;;;;;;6.05;3.00;;;;;;;17.07;82.85;101371.03;5092342;28;20036;-62
2023/09/23 10:51:13;;;;;;;7.50;2.80;;;;;;;17.06;83.09;101366.59;5092483;28;20430;-62
2023/09/23 10:53:38;;;;;;;7.82;3.22;;;;;;;17.15;82.69;101374.53;5092332;28;20508;-63
2023/09/23 10:56:04;;;;;;;12.23;3.22;;;;;;;17.19;82.25;101374.47;5092084;28;20107;-62
2023/09/23 10:58:31;;;;;;;6.40;2.90;;;;;;;17.32;81.66;101383.28;5092516;28;20034;-62
2023/09/23 11:00:57;;;;;;;9.02;2.92;;;;;;;17.43;80.68;101372.47;5092716;28;20488;-63
2023/09/23 11:03:22;;;;;;;9.18;3.00;;;;;;;17.42;79.06;101374.28;5092455;28;20449;-62
2023/09/23 11:05:48;;;;;;;7.35;2.92;;;;;;;17.30;80.88;101374.41;5074262;28;20118;-62
2023/09/23 11:08:16;;;;;;;8.25;3.20;;;;;;;17.32;81.88;101380.59;5092620;28;20024;-62
2023/09/23 11:10:43;;;;;;;8.70;2.90;;;;;;;17.28;79.90;101400.22;5092371;28;20087;-62
2023/09/23 11:13:11;;;;;;;6.28;3.10;;;;;;;17.14;79.97;101404.81;5092357;28;20055;-63
2023/09/23 11:15:43;;;;;;;7.40;2.85;;;;;;;17.12;80.61;101402.13;5092176;28;20056;-63